Terminal Aerodrome Forecast
Issued by NWS

Home | Current Version | Previous Version | Text Only | Print | Product List | Glossary On
Versions: 1 2 3 4 5 6 7 8 9 10 11 12 13 14 15 16 17 18
000
FTUS44 KBMX 190044 AAA
TAFTCL
TAF AMD
KTCL 190044Z 1901/1924 12005KT P6SM OVC025
     FM190200 16008KT 5SM SHRA VCTS OVC007CB
     FM191200 17008KT P6SM OVC007
     FM191500 22009KT P6SM OVC015
     FM192100 23009KT P6SM SCT050 OVC250=

USA.gov is the U.S. government's official web portal to all federal, state and local government web resources and services.